Time;durP1;ratioP1;P1;durP2;ratioP2;P2;SDS_P1;SDS_P2;PMS_P1;PMS_P2;Temp;Humidity;BMP_temperature;BMP_pressure;BME280_temperature;BME280_humidity;BME280_pressure;Samples;Min_cycle;Max_cycle;Signal;HPM_P1;HPM_P2
2024/02/11 00:02:18;;;;;;;21.40;19.60;;;;;;;11.69;97.69;97779.47;5011349;28;20207;-77
2024/02/11 00:04:45;;;;;;;22.33;20.00;;;;;;;11.68;97.83;97779.59;5020278;28;20574;-77
2024/02/11 00:07:12;;;;;;;21.40;19.23;;;;;;;11.67;98.14;97772.66;5011474;28;20250;-77
2024/02/11 00:09:38;;;;;;;22.03;19.97;;;;;;;11.66;98.20;97765.78;5011327;28;20293;-77
2024/02/11 00:12:05;;;;;;;21.23;19.37;;;;;;;11.67;98.04;97765.69;5011726;28;20210;-77
2024/02/11 00:14:31;;;;;;;21.43;19.53;;;;;;;11.68;97.87;97758.69;5011252;28;20234;-77
2024/02/11 00:17:00;;;;;;;20.93;19.10;;;;;;;11.60;98.61;97745.28;5011796;28;20306;-77
2024/02/11 00:19:27;;;;;;;22.17;19.83;;;;;;;11.63;98.51;97750.28;5011135;28;20725;-76
2024/02/11 00:21:53;;;;;;;22.50;20.40;;;;;;;11.60;98.58;97747.91;5011542;28;20204;-76
2024/02/11 00:24:23;;;;;;;22.20;20.27;;;;;;;11.64;98.89;97741.53;5011310;28;20239;-77
2024/02/11 00:26:49;;;;;;;21.60;19.80;;;;;;;11.64;98.80;97736.31;5011530;28;20307;-77
2024/02/11 00:29:17;;;;;;;23.27;21.17;;;;;;;11.62;98.73;97733.78;5011189;28;20207;-76
2024/02/11 00:31:44;;;;;;;23.80;21.47;;;;;;;11.60;98.86;97732.22;5011169;28;20243;-77
2024/02/11 00:34:12;;;;;;;22.53;20.57;;;;;;;11.53;99.70;97724.81;5011754;28;20207;-77
2024/02/11 00:36:40;;;;;;;25.47;22.17;;;;;;;11.47;100.00;97712.13;5011475;28;20297;-77
2024/02/11 00:39:07;;;;;;;24.57;21.83;;;;;;;11.37;100.00;97705.84;5011014;28;20210;-77
2024/02/11 00:41:33;;;;;;;22.37;20.33;;;;;;;11.60;99.90;97703.50;5015070;28;20204;-77
2024/02/11 00:44:00;;;;;;;23.60;21.43;;;;;;;11.64;98.63;97707.56;5015184;28;20207;-77
2024/02/11 00:46:26;;;;;;;23.00;20.83;;;;;;;11.61;98.95;97724.25;5015452;28;20222;-77
2024/02/11 00:48:52;;;;;;;22.90;20.90;;;;;;;11.64;98.87;97723.25;5006908;28;20207;-77
2024/02/11 00:51:20;;;;;;;22.60;20.60;;;;;;;11.61;98.84;97723.44;5015032;28;20231;-77
2024/02/11 00:53:48;;;;;;;23.47;21.03;;;;;;;11.64;99.00;97725.84;5014426;28;20697;-77
2024/02/11 00:56:15;;;;;;;24.00;21.57;;;;;;;11.63;99.05;97732.00;5023407;28;20638;-77
2024/02/11 00:58:41;;;;;;;22.30;20.60;;;;;;;11.63;99.08;97737.22;5014874;28;20625;-77
2024/02/11 01:01:08;;;;;;;21.87;19.73;;;;;;;11.62;98.78;97731.19;5015514;28;20199;-77
2024/02/11 01:03:35;;;;;;;23.37;21.37;;;;;;;11.65;98.47;97737.97;5014743;28;20209;-77
2024/02/11 01:06:01;;;;;;;22.33;20.23;;;;;;;11.66;98.77;97737.88;5015316;28;20289;-77
2024/02/11 01:08:29;;;;;;;23.27;21.27;;;;;;;11.66;98.79;97742.25;5014816;28;20227;-77
2024/02/11 01:10:55;;;;;;;22.83;20.53;;;;;;;11.71;97.95;97746.25;5007022;28;20288;-77
2024/02/11 01:13:21;;;;;;;22.80;21.00;;;;;;;11.73;97.38;97744.38;5014997;28;20281;-77
2024/02/11 01:15:48;;;;;;;21.80;19.83;;;;;;;11.75;97.52;97751.25;5014515;28;20765;-77
2024/02/11 01:18:14;;;;;;;21.53;19.73;;;;;;;11.71;97.09;97751.47;5014483;28;20227;-77
2024/02/11 01:20:42;;;;;;;22.07;20.37;;;;;;;11.73;97.05;97762.66;5014322;28;20207;-77
2024/02/11 01:23:08;;;;;;;21.87;20.10;;;;;;;11.76;97.12;97773.84;5013880;28;20210;-77
2024/02/11 01:25:36;;;;;;;22.97;20.97;;;;;;;11.76;96.83;97773.84;5014624;28;20209;-77
2024/02/11 01:28:02;;;;;;;22.13;20.37;;;;;;;11.73;96.81;97769.63;5014874;28;20641;-77
2024/02/11 01:30:29;;;;;;;23.67;21.40;;;;;;;11.76;97.03;97771.25;5014179;28;20210;-77
2024/02/11 01:32:57;;;;;;;22.97;20.97;;;;;;;11.74;96.49;97776.56;5022888;28;20204;-77
2024/02/11 01:35:24;;;;;;;22.87;20.67;;;;;;;11.68;96.59;97769.97;5014431;28;20229;-77
2024/02/11 01:37:50;;;;;;;21.77;19.97;;;;;;;11.67;96.64;97759.59;5013860;28;20625;-77
2024/02/11 01:40:17;;;;;;;22.77;20.90;;;;;;;11.66;97.02;97758.78;5013929;28;20679;-77
2024/02/11 01:42:45;;;;;;;22.17;20.23;;;;;;;11.63;97.36;97753.72;5014408;28;20588;-76
2024/02/11 01:45:12;;;;;;;24.37;21.83;;;;;;;11.61;97.22;97760.00;5014236;28;20204;-77
2024/02/11 01:47:39;;;;;;;22.80;20.90;;;;;;;11.58;97.24;97757.63;5013865;28;20645;-78
2024/02/11 01:50:08;;;;;;;22.83;20.83;;;;;;;11.57;97.62;97759.38;5014664;28;20280;-77
2024/02/11 01:52:36;;;;;;;23.63;21.20;;;;;;;11.61;97.63;97754.78;5013632;28;20203;-77
2024/02/11 01:55:03;;;;;;;25.13;22.83;;;;;;;11.57;97.37;97748.91;5013415;28;20230;-77
2024/02/11 01:57:30;;;;;;;23.43;21.53;;;;;;;11.59;97.16;97749.66;5014295;28;20233;-76
2024/02/11 01:59:58;;;;;;;24.37;22.30;;;;;;;11.58;97.03;97755.00;5017735;28;20206;-76
2024/02/11 02:02:29;;;;;;;24.93;22.60;;;;;;;11.57;97.14;97751.53;5018671;28;20306;-77
2024/02/11 02:04:55;;;;;;;24.30;21.97;;;;;;;11.58;97.34;97758.44;5013896;28;20203;-77
2024/02/11 02:07:22;;;;;;;24.13;21.77;;;;;;;11.59;97.06;97744.44;5014168;28;20722;-77
2024/02/11 02:09:50;;;;;;;24.27;21.87;;;;;;;11.58;97.49;97757.63;5013909;28;20203;-77
2024/02/11 02:12:17;;;;;;;26.10;23.67;;;;;;;11.57;97.41;97758.53;5014616;28;20253;-77
2024/02/11 02:14:44;;;;;;;25.10;22.90;;;;;;;11.58;97.93;97757.63;5013721;28;20213;-78
2024/02/11 02:17:12;;;;;;;25.03;22.53;;;;;;;11.63;97.75;97751.13;5013801;28;20654;-77
2024/02/11 02:19:38;;;;;;;26.27;23.73;;;;;;;11.65;97.42;97756.25;5015343;28;20211;-77
2024/02/11 02:22:06;;;;;;;26.30;23.80;;;;;;;11.68;96.71;97763.91;5013780;28;20217;-77
2024/02/11 02:24:32;;;;;;;26.97;23.93;;;;;;;11.69;95.90;97778.63;5014824;28;20213;-77
2024/02/11 02:26:59;;;;;;;24.20;22.10;;;;;;;11.67;96.52;97775.28;5013949;28;20221;-77
2024/02/11 02:29:25;;;;;;;26.83;24.03;;;;;;;11.67;95.86;97778.75;5013478;28;20203;-77
2024/02/11 02:31:51;;;;;;;25.50;22.80;;;;;;;11.64;96.05;97775.50;5013120;28;20253;-77
2024/02/11 02:34:19;;;;;;;25.13;22.37;;;;;;;11.62;96.00;97778.22;5013864;28;20215;-77
2024/02/11 02:36:48;;;;;;;24.00;21.90;;;;;;;11.65;96.18;97775.38;5012759;28;20242;-75
2024/02/11 02:39:16;;;;;;;25.07;22.63;;;;;;;11.62;95.64;97780.81;5013337;28;20202;-77
2024/02/11 02:41:42;;;;;;;26.23;23.47;;;;;;;11.58;96.61;97771.50;5013568;28;20210;-77
2024/02/11 02:44:08;;;;;;;26.00;23.10;;;;;;;11.57;96.93;97767.22;5013445;28;20202;-77
2024/02/11 02:46:35;;;;;;;24.50;22.10;;;;;;;11.64;96.06;97760.66;5013324;28;20195;-77
2024/02/11 02:49:01;;;;;;;25.20;22.57;;;;;;;11.63;96.08;97758.13;5004435;28;20211;-77
2024/02/11 02:51:27;;;;;;;25.77;22.57;;;;;;;11.62;96.54;97759.09;5006475;28;20207;-77
2024/02/11 02:53:54;;;;;;;26.60;23.90;;;;;;;11.64;96.39;97755.44;5011626;28;20263;-77
2024/02/11 02:56:26;;;;;;;25.03;22.47;;;;;;;11.69;96.17;97762.94;5013333;28;20226;-77
2024/02/11 02:58:52;;;;;;;29.00;24.50;;;;;;;11.71;96.01;97776.75;5012712;28;20646;-77
2024/02/11 03:01:22;;;;;;;26.17;22.23;;;;;;;11.67;95.72;97768.31;5012279;28;20203;-77
2024/02/11 03:03:50;;;;;;;25.60;22.97;;;;;;;11.66;95.88;97764.00;5012043;28;20755;-77
2024/02/11 03:06:16;;;;;;;27.27;23.23;;;;;;;11.69;95.89;97763.81;5012735;28;20721;-77
2024/02/11 03:08:42;;;;;;;25.47;22.97;;;;;;;11.73;95.26;97767.03;5011778;28;20284;-77
2024/02/11 03:11:09;;;;;;;25.80;23.30;;;;;;;11.64;96.32;97772.88;5012636;28;20223;-77
2024/02/11 03:13:36;;;;;;;27.67;23.80;;;;;;;11.62;96.54;97766.94;5012116;28;20261;-76
2024/02/11 03:16:03;;;;;;;28.67;23.30;;;;;;;11.65;96.59;97758.88;5012175;28;20616;-77
2024/02/11 03:18:30;;;;;;;25.33;22.70;;;;;;;11.63;96.99;97753.72;5013367;28;20289;-77
2024/02/11 03:20:56;;;;;;;28.17;23.40;;;;;;;11.73;95.75;97761.81;5012706;28;20207;-77
2024/02/11 03:23:22;;;;;;;29.73;24.10;;;;;;;11.71;95.88;97777.59;5011978;28;20284;-78
2024/02/11 03:25:50;;;;;;;24.87;22.33;;;;;;;11.58;96.07;97770.69;5010397;28;20694;-77
2024/02/11 03:28:17;;;;;;;25.80;23.10;;;;;;;11.64;96.58;97754.59;5012175;28;20707;-77
2024/02/11 03:30:45;;;;;;;26.77;23.87;;;;;;;11.47;97.21;97761.75;5012736;28;20238;-77
2024/02/11 03:33:11;;;;;;;27.23;24.27;;;;;;;11.42;98.18;97744.72;5012184;28;20678;-77
2024/02/11 03:35:38;;;;;;;27.40;23.93;;;;;;;11.42;98.21;97736.91;5012196;28;20635;-77
2024/02/11 03:38:04;;;;;;;29.30;25.50;;;;;;;11.40;98.61;97730.94;5014824;28;20712;-77
2024/02/11 03:40:31;;;;;;;31.53;24.90;;;;;;;11.39;98.72;97721.41;5005077;28;20215;-77
2024/02/11 03:42:57;;;;;;;30.63;24.27;;;;;;;11.38;98.76;97720.59;5000183;28;20262;-77
2024/02/11 03:45:23;;;;;;;30.17;24.37;;;;;;;11.32;99.70;97715.78;5010556;28;20207;-77
2024/02/11 03:47:51;;;;;;;31.77;25.53;;;;;;;11.38;99.83;97709.28;5011423;28;20239;-77
2024/02/11 03:50:19;;;;;;;33.93;25.87;;;;;;;11.37;99.57;97712.84;5010669;28;20208;-76
2024/02/11 03:52:45;;;;;;;31.00;26.30;;;;;;;11.39;99.89;97710.97;5007790;28;20203;-76
2024/02/11 03:55:12;;;;;;;31.33;26.40;;;;;;;11.40;99.76;97715.28;5005443;28;20622;-77
2024/02/11 03:57:38;;;;;;;29.93;26.67;;;;;;;11.39;99.65;97714.41;5008223;28;20294;-77
2024/02/11 04:00:24;;;;;;;30.50;25.40;;;;;;;11.44;99.56;97709.72;4997300;28;20216;-77
2024/02/11 04:02:52;;;;;;;29.57;25.63;;;;;;;11.44;98.78;97717.56;5000390;28;20211;-77
2024/02/11 04:05:20;;;;;;;28.97;25.07;;;;;;;11.42;98.98;97722.06;5001078;28;20225;-77
2024/02/11 04:07:47;;;;;;;29.90;24.63;;;;;;;11.41;99.07;97715.16;4999945;28;20698;-77
2024/02/11 04:10:19;;;;;;;28.27;24.90;;;;;;;11.41;99.27;97722.16;5003125;28;20207;-76
2024/02/11 04:12:47;;;;;;;32.77;26.37;;;;;;;11.48;98.93;97720.81;5009112;28;20200;-77
2024/02/11 04:15:16;;;;;;;33.33;26.97;;;;;;;11.48;98.77;97726.03;5004720;28;20205;-77
2024/02/11 04:17:42;;;;;;;31.40;25.77;;;;;;;11.60;98.29;97727.84;5011390;28;20706;-77
2024/02/11 04:20:15;;;;;;;33.43;26.47;;;;;;;11.50;98.57;97737.22;5002593;28;20602;-77
2024/02/11 04:22:42;;;;;;;28.17;25.17;;;;;;;11.47;98.91;97732.19;5011696;28;20229;-77
2024/02/11 04:25:11;;;;;;;33.73;25.80;;;;;;;11.46;99.30;97731.34;5010542;28;20207;-77
2024/02/11 04:27:40;;;;;;;29.80;25.27;;;;;;;11.47;98.79;97733.00;5010140;28;20222;-78
2024/02/11 04:30:14;;;;;;;33.07;26.63;;;;;;;11.48;98.59;97736.50;5010717;28;20301;-77
2024/02/11 04:32:42;;;;;;;31.73;25.63;;;;;;;11.47;98.74;97740.84;5011859;28;20356;-77
2024/02/11 04:35:12;;;;;;;29.80;25.23;;;;;;;11.45;98.65;97745.34;5012077;28;20213;-77
2024/02/11 04:37:40;;;;;;;34.13;26.30;;;;;;;11.43;99.33;97743.78;5011973;28;20231;-77
2024/02/11 04:40:10;;;;;;;32.97;25.37;;;;;;;11.48;98.48;97747.78;5011682;28;20199;-77
2024/02/11 04:42:41;;;;;;;34.20;26.03;;;;;;;11.52;97.98;97751.03;5012013;28;20669;-77
2024/02/11 04:45:08;;;;;;;27.53;24.57;;;;;;;11.55;98.00;97757.81;5011792;28;20198;-77
2024/02/11 04:47:35;;;;;;;28.50;25.00;;;;;;;11.55;97.76;97763.88;5011420;28;20269;-77
2024/02/11 04:50:03;;;;;;;27.47;24.57;;;;;;;11.55;97.93;97765.66;5003519;28;20319;-77
2024/02/11 04:52:32;;;;;;;27.60;24.50;;;;;;;11.53;97.70;97761.38;5011758;28;20222;-77
2024/02/11 04:54:58;;;;;;;30.87;25.27;;;;;;;11.57;97.43;97769.00;5012638;28;20215;-78
2024/02/11 04:57:25;;;;;;;30.90;25.83;;;;;;;11.55;97.56;97763.03;5011886;28;20230;-77
2024/02/11 04:59:51;;;;;;;28.67;25.23;;;;;;;11.54;97.57;97762.22;5011454;28;20302;-77
2024/02/11 05:02:18;;;;;;;28.40;25.30;;;;;;;11.52;97.46;97775.34;5011101;28;20322;-77
2024/02/11 05:04:47;;;;;;;28.53;25.43;;;;;;;11.50;97.82;97769.41;5011942;28;20233;-77
2024/02/11 05:07:14;;;;;;;29.70;24.87;;;;;;;11.52;97.55;97770.13;5011516;28;20223;-77
2024/02/11 05:09:45;;;;;;;33.43;24.77;;;;;;;11.50;98.28;97766.78;5011368;28;20214;-77
2024/02/11 05:12:11;;;;;;;28.50;24.70;;;;;;;11.48;98.30;97760.81;5011479;28;20203;-77
2024/02/11 05:14:40;;;;;;;31.77;25.40;;;;;;;11.48;97.86;97754.78;5011234;28;20254;-78
2024/02/11 05:17:08;;;;;;;35.47;26.07;;;;;;;11.47;98.28;97755.69;5011625;28;20289;-77
2024/02/11 05:19:35;;;;;;;28.37;25.40;;;;;;;11.40;99.03;97747.44;5011603;28;20215;-77
2024/02/11 05:22:04;;;;;;;30.73;24.73;;;;;;;11.44;98.91;97743.69;5011425;28;20207;-77
2024/02/11 05:24:31;;;;;;;33.63;24.93;;;;;;;11.44;98.99;97741.06;5010667;28;20682;-77
2024/02/11 05:26:58;;;;;;;35.67;26.80;;;;;;;11.43;99.31;97742.00;5013713;28;20228;-77
2024/02/11 05:29:26;;;;;;;30.70;26.40;;;;;;;11.44;98.79;97738.47;5014604;28;20892;-77
2024/02/11 05:31:53;;;;;;;27.60;24.60;;;;;;;11.49;98.14;97744.19;5014795;28;20219;-77
2024/02/11 05:34:19;;;;;;;28.53;24.57;;;;;;;11.49;98.22;97757.25;5014667;28;20662;-77
2024/02/11 05:36:45;;;;;;;30.07;25.43;;;;;;;11.59;97.86;97762.72;5014593;28;20235;-75
2024/02/11 05:39:13;;;;;;;30.13;24.73;;;;;;;11.68;96.47;97777.78;5013862;28;20282;-77
2024/02/11 05:41:41;;;;;;;29.33;24.00;;;;;;;11.72;95.62;97789.72;5014669;28;20211;-77
2024/02/11 05:44:09;;;;;;;27.93;24.93;;;;;;;11.75;95.34;97806.13;5014136;28;20203;-77
2024/02/11 05:46:36;;;;;;;30.40;25.30;;;;;;;11.58;95.72;97812.47;5014134;28;20211;-76
2024/02/11 05:49:05;;;;;;;30.17;25.33;;;;;;;11.51;96.12;97796.34;5013808;28;20634;-77
2024/02/11 05:51:31;;;;;;;29.47;24.40;;;;;;;11.46;96.99;97791.44;5014197;28;20355;-77
2024/02/11 05:53:58;;;;;;;29.93;25.53;;;;;;;11.43;96.94;97794.25;5013263;28;20207;-78
2024/02/11 05:56:24;;;;;;;30.40;25.07;;;;;;;11.37;97.61;97776.34;5013986;28;20569;-76
2024/02/11 05:58:51;;;;;;;31.77;24.93;;;;;;;11.37;98.10;97765.09;5014179;28;20755;-77
2024/02/11 06:01:19;;;;;;;32.70;25.87;;;;;;;11.41;98.29;97762.16;5014320;28;20203;-77
2024/02/11 06:03:46;;;;;;;27.33;23.93;;;;;;;11.43;97.94;97769.91;5013774;28;20211;-77
2024/02/11 06:06:13;;;;;;;31.23;25.17;;;;;;;11.40;97.80;97778.78;5014126;28;20269;-77
2024/02/11 06:08:40;;;;;;;29.33;24.23;;;;;;;11.42;97.54;97776.91;5013245;28;20705;-77
2024/02/11 06:11:11;;;;;;;27.57;24.13;;;;;;;11.42;97.37;97779.50;5013908;28;20206;-77
2024/02/11 06:13:38;;;;;;;31.30;25.63;;;;;;;11.39;97.67;97786.72;5013547;28;20214;-77
2024/02/11 06:16:06;;;;;;;33.70;25.23;;;;;;;11.43;97.43;97786.41;5013327;28;20238;-77
2024/02/11 06:18:34;;;;;;;28.90;23.83;;;;;;;11.43;97.50;97782.97;5013542;28;20231;-75
2024/02/11 06:21:00;;;;;;;27.00;23.23;;;;;;;11.43;97.00;97789.00;5013480;28;20209;-76
2024/02/11 06:23:26;;;;;;;29.33;25.00;;;;;;;11.42;97.14;97784.75;5012668;28;20211;-76
2024/02/11 06:26:02;;;;;;;28.77;25.67;;;;;;;11.43;96.89;97789.00;5013805;28;20317;-76
2024/02/11 06:28:28;;;;;;;31.30;25.57;;;;;;;11.43;96.96;97790.78;5014431;28;20225;-77
2024/02/11 06:30:55;;;;;;;32.43;25.60;;;;;;;11.42;96.98;97799.59;5013914;28;20252;-77
2024/02/11 06:33:21;;;;;;;29.33;25.20;;;;;;;11.36;97.38;97798.19;5014018;28;20199;-77
2024/02/11 06:35:50;;;;;;;27.07;23.77;;;;;;;11.40;97.43;97802.28;5023123;28;20207;-77
2024/02/11 06:38:15;;;;;;;31.87;24.43;;;;;;;11.55;96.35;97807.44;5013656;28;20309;-77
2024/02/11 06:40:42;;;;;;;30.57;25.07;;;;;;;11.57;96.03;97813.41;5013573;28;20328;-76
2024/02/11 06:43:11;;;;;;;30.13;26.00;;;;;;;11.47;95.79;97834.06;5012836;28;20239;-76
2024/02/11 06:45:40;;;;;;;35.93;26.10;;;;;;;11.37;96.55;97819.94;5013060;28;20211;-75
2024/02/11 06:48:08;;;;;;;31.83;24.77;;;;;;;11.35;97.25;97816.56;5012501;28;20617;-76
2024/02/11 06:50:34;;;;;;;33.37;25.40;;;;;;;11.48;96.45;97812.25;5013070;28;20241;-76
2024/02/11 06:53:02;;;;;;;35.13;25.30;;;;;;;11.44;96.00;97829.06;5011950;28;20200;-76
2024/02/11 06:55:28;;;;;;;31.40;25.23;;;;;;;11.58;95.59;97834.22;5012793;28;20243;-76
2024/02/11 06:57:55;;;;;;;35.93;27.30;;;;;;;11.55;95.72;97839.63;5013020;28;20297;-76
2024/02/11 07:00:22;;;;;;;38.03;26.97;;;;;;;11.59;95.85;97854.16;5012941;28;20215;-76
2024/02/11 07:02:52;;;;;;;35.30;26.80;;;;;;;11.37;97.09;97838.22;5012560;28;20213;-76
2024/02/11 07:05:19;;;;;;;38.33;27.77;;;;;;;11.33;97.67;97822.72;5012725;28;20588;-76
2024/02/11 07:07:46;;;;;;;41.53;27.77;;;;;;;11.32;97.71;97817.63;5012282;28;20235;-75
2024/02/11 07:10:14;;;;;;;36.43;26.20;;;;;;;11.30;98.04;97816.88;5012073;28;20253;-76
2024/02/11 07:12:41;;;;;;;35.80;27.73;;;;;;;11.29;98.38;97817.81;5012763;28;20210;-76
2024/02/11 07:15:11;;;;;;;38.80;28.37;;;;;;;11.27;98.74;97811.84;5012349;28;20727;-76
2024/02/11 07:17:41;;;;;;;42.17;28.47;;;;;;;11.29;99.00;97800.34;5012087;28;20243;-75
2024/02/11 07:20:11;;;;;;;42.60;29.47;;;;;;;11.30;98.69;97798.59;5004219;28;20211;-76
2024/02/11 07:22:38;;;;;;;50.00;31.37;;;;;;;11.25;99.22;97800.66;5011870;28;20670;-76
2024/02/11 07:25:06;;;;;;;49.40;31.37;;;;;;;11.26;99.94;97802.34;5012241;28;20207;-76
2024/02/11 07:27:34;;;;;;;53.47;32.63;;;;;;;11.22;100.00;97806.06;5012511;28;20303;-76
2024/02/11 07:30:01;;;;;;;45.70;29.87;;;;;;;11.24;99.92;97805.06;5011904;28;20821;-76
2024/02/11 07:32:27;;;;;;;45.67;30.67;;;;;;;11.27;100.00;97794.38;5011728;28;20666;-76
2024/02/11 07:34:56;;;;;;;44.87;29.43;;;;;;;11.30;99.86;97796.81;5012338;28;20222;-75
2024/02/11 07:37:22;;;;;;;54.70;30.40;;;;;;;11.29;99.46;97812.59;5011526;28;20979;-76
2024/02/11 07:39:50;;;;;;;44.97;30.63;;;;;;;11.30;100.00;97817.72;5011976;28;20678;-76
2024/02/11 07:42:16;;;;;;;45.17;30.43;;;;;;;11.33;99.61;97820.09;5011854;28;20613;-76
2024/02/11 07:44:44;;;;;;;45.47;29.43;;;;;;;11.33;99.21;97812.28;5011935;28;20207;-76
2024/02/11 07:47:12;;;;;;;47.60;28.80;;;;;;;11.33;99.02;97829.72;5011568;28;20224;-76
2024/02/11 07:49:38;;;;;;;50.13;30.43;;;;;;;11.29;99.22;97831.69;5011539;28;20209;-76
2024/02/11 07:52:06;;;;;;;41.50;30.37;;;;;;;11.30;99.70;97822.94;5011355;28;20683;-76
2024/02/11 07:54:33;;;;;;;41.83;30.30;;;;;;;11.30;99.62;97825.53;5011467;28;20584;-77
2024/02/11 07:57:00;;;;;;;46.47;29.57;;;;;;;11.28;100.00;97826.59;5011924;28;20605;-77
2024/02/11 07:59:26;;;;;;;52.80;31.43;;;;;;;11.25;99.99;97830.22;5004441;28;20237;-76
2024/02/11 08:01:55;;;;;;;43.13;30.33;;;;;;;11.27;100.00;97833.56;5011862;28;20695;-77
2024/02/11 08:04:21;;;;;;;44.97;31.27;;;;;;;11.28;100.00;97826.59;5011348;28;20218;-76
2024/02/11 08:06:48;;;;;;;46.17;30.50;;;;;;;11.30;100.00;97825.53;5011742;28;20238;-76
2024/02/11 08:09:14;;;;;;;48.77;30.10;;;;;;;11.36;100.00;97826.94;5011454;28;20211;-77
2024/02/11 08:11:42;;;;;;;45.57;29.97;;;;;;;11.34;99.70;97847.09;5011858;28;20232;-77
2024/02/11 08:14:08;;;;;;;44.87;30.83;;;;;;;11.33;100.00;97851.44;5019316;28;20206;-76
2024/02/11 08:16:34;;;;;;;41.67;29.33;;;;;;;11.36;100.00;97854.81;5011055;28;20215;-76
2024/02/11 08:19:03;;;;;;;40.73;28.03;;;;;;;11.31;100.00;97853.31;5009672;28;20285;-77
2024/02/11 08:21:29;;;;;;;49.97;29.43;;;;;;;11.34;100.00;97849.69;5002682;28;20207;-77
2024/02/11 08:23:56;;;;;;;46.23;29.63;;;;;;;11.40;99.91;97858.91;5018331;28;20249;-77
2024/02/11 08:26:24;;;;;;;37.63;26.77;;;;;;;11.41;99.76;97857.97;5011090;28;20207;-77
2024/02/11 08:28:51;;;;;;;37.10;27.83;;;;;;;11.43;99.46;97867.38;5011308;28;20270;-76
2024/02/11 08:31:18;;;;;;;42.47;29.43;;;;;;;11.42;99.73;97870.09;5011542;28;20279;-77
2024/02/11 08:33:45;;;;;;;45.13;29.93;;;;;;;11.45;99.94;97862.06;5010988;28;20262;-77
2024/02/11 08:36:13;;;;;;;35.97;27.37;;;;;;;11.47;99.98;97850.56;5011640;28;20207;-77
2024/02/11 08:38:40;;;;;;;37.00;26.33;;;;;;;11.48;100.00;97857.47;5010781;28;20230;-77
2024/02/11 08:41:06;;;;;;;38.07;27.90;;;;;;;11.46;99.72;97864.59;5011346;28;20728;-76
2024/02/11 08:43:33;;;;;;;40.43;28.50;;;;;;;11.45;99.78;97862.88;5011232;28;20580;-77
2024/02/11 08:46:03;;;;;;;44.73;28.50;;;;;;;11.48;99.69;97856.66;5018468;28;20271;-76
2024/02/11 08:48:30;;;;;;;39.70;27.83;;;;;;;11.47;99.82;97863.63;5003177;28;20703;-77
2024/02/11 08:50:57;;;;;;;40.27;28.80;;;;;;;11.50;99.55;97870.44;5011401;28;20207;-76
2024/02/11 08:53:24;;;;;;;41.80;29.07;;;;;;;11.63;99.23;97860.88;5008870;28;20670;-76
2024/02/11 08:55:53;;;;;;;39.50;28.23;;;;;;;11.77;98.00;97886.09;5010249;28;20689;-76
2024/02/11 08:58:20;;;;;;;42.00;27.87;;;;;;;11.85;97.61;97909.13;5009149;28;20769;-76
2024/02/11 09:00:46;;;;;;;39.70;28.60;;;;;;;11.63;98.57;97902.66;5003057;28;20748;-76
2024/02/11 09:03:12;;;;;;;39.57;28.27;;;;;;;11.61;99.21;97888.88;5004778;28;20226;-76
2024/02/11 09:05:39;;;;;;;38.53;28.37;;;;;;;11.73;98.97;97880.25;5007822;28;20214;-76
2024/02/11 09:08:06;;;;;;;35.93;27.17;;;;;;;11.88;97.85;97908.94;5006958;28;20231;-76
2024/02/11 09:10:35;;;;;;;46.58;35.85;;;;;;;12.02;97.56;97916.75;5006859;28;20446;-76
2024/02/11 09:13:01;;;;;;;37.80;28.47;;;;;;;12.09;97.27;97927.63;5005606;28;20210;-77
2024/02/11 09:15:27;;;;;;;35.63;27.57;;;;;;;11.99;96.65;97950.09;5008447;28;20211;-76
2024/02/11 09:17:54;;;;;;;35.50;26.07;;;;;;;11.89;96.98;97949.84;5007210;28;20286;-76
2024/02/11 09:20:20;;;;;;;35.00;25.93;;;;;;;11.88;96.63;97953.38;5004583;28;20207;-75
2024/02/11 09:22:48;;;;;;;32.37;25.27;;;;;;;11.88;96.71;97956.00;5006305;28;20209;-76
2024/02/11 09:25:14;;;;;;;39.93;28.17;;;;;;;11.85;96.85;97958.78;5008116;28;20238;-76
2024/02/11 09:27:42;;;;;;;37.90;27.67;;;;;;;11.83;96.83;97958.91;5007323;28;20721;-76
2024/02/11 09:30:11;;;;;;;41.47;27.87;;;;;;;11.83;97.28;97953.69;5007438;28;20205;-77
2024/02/11 09:32:38;;;;;;;43.30;29.30;;;;;;;11.81;96.86;97952.09;5007533;28;20287;-77
2024/02/11 09:35:04;;;;;;;40.07;28.53;;;;;;;11.95;96.87;97967.75;5006776;28;20700;-77
2024/02/11 09:37:32;;;;;;;45.70;30.30;;;;;;;11.98;96.32;97971.97;5007980;28;20698;-77
2024/02/11 09:39:58;;;;;;;45.63;29.43;;;;;;;12.01;96.09;97979.59;5004846;28;20239;-76
2024/02/11 09:42:25;;;;;;;47.13;29.93;;;;;;;12.01;95.76;97982.22;5008292;28;20617;-77
2024/02/11 09:44:54;;;;;;;48.37;31.53;;;;;;;12.02;96.03;97989.97;5006505;28;20202;-76
2024/02/11 09:47:21;;;;;;;49.37;32.27;;;;;;;12.03;95.31;97998.63;5006641;28;20254;-76
2024/02/11 09:49:51;;;;;;;55.97;37.92;;;;;;;12.03;96.14;97998.63;5003490;28;20784;-77
2024/02/11 09:52:20;;;;;;;49.97;32.20;;;;;;;12.07;95.94;98000.97;5003641;28;20241;-76
2024/02/11 09:54:47;;;;;;;51.83;31.73;;;;;;;12.10;94.90;98010.38;5005976;28;20765;-77
2024/02/11 09:57:13;;;;;;;47.37;29.47;;;;;;;12.06;94.88;98014.13;5007645;28;20269;-76
2024/02/11 09:59:40;;;;;;;52.43;30.97;;;;;;;12.07;94.82;98021.03;5007086;28;20203;-76
2024/02/11 10:02:17;;;;;;;56.00;31.03;;;;;;;12.05;94.75;98022.91;5006654;28;20247;-76
2024/02/11 10:04:45;;;;;;;50.47;30.73;;;;;;;12.02;95.31;98017.88;5006989;28;20260;-76
2024/02/11 10:07:23;;;;;;;45.30;29.33;;;;;;;11.82;96.05;98017.34;5006685;28;20330;-75
2024/02/11 10:09:50;;;;;;;45.80;29.57;;;;;;;11.77;97.24;97990.63;5004445;28;20290;-75
2024/02/11 10:12:18;;;;;;;43.67;28.10;;;;;;;11.72;97.70;97985.72;5007553;28;20214;-75
2024/02/11 10:14:52;;;;;;;46.00;29.70;;;;;;;11.71;98.42;97965.75;5006382;28;20203;-75
2024/02/11 10:17:21;;;;;;;43.60;30.23;;;;;;;11.71;98.55;97962.28;5004918;28;20734;-75
2024/02/11 10:19:47;;;;;;;45.07;28.50;;;;;;;11.75;98.21;97966.38;5006393;28;20670;-75
2024/02/11 10:22:13;;;;;;;47.23;28.10;;;;;;;11.75;98.58;97955.94;5013377;28;20204;-75
2024/02/11 10:24:41;;;;;;;44.03;29.20;;;;;;;11.76;98.70;97952.41;5012325;28;20210;-74
2024/02/11 10:27:07;;;;;;;39.07;28.83;;;;;;;11.78;98.84;97952.31;5013531;28;20222;-74
2024/02/11 10:29:33;;;;;;;40.97;29.07;;;;;;;11.79;98.71;97946.94;5013221;28;20203;-74
2024/02/11 10:32:00;;;;;;;43.30;29.57;;;;;;;11.81;98.55;97939.03;5011684;28;20198;-74
2024/02/11 10:34:28;;;;;;;48.97;29.07;;;;;;;11.85;98.57;97948.34;5013340;28;20210;-74
2024/02/11 10:36:55;;;;;;;46.03;28.93;;;;;;;11.85;98.49;97951.81;5013124;28;20234;-74
2024/02/11 10:39:21;;;;;;;42.97;28.67;;;;;;;11.84;98.35;97960.56;4318009;28;10000704;-74
2024/02/11 10:41:49;;;;;;;38.10;27.60;;;;;;;11.87;98.25;97960.41;5010213;28;20206;-73
2024/02/11 10:44:16;;;;;;;40.87;26.90;;;;;;;11.87;98.51;97965.63;5009887;28;20208;-75
2024/02/11 10:46:42;;;;;;;39.63;27.40;;;;;;;11.90;98.08;97964.59;5009862;28;20253;-75
2024/02/11 10:49:08;;;;;;;45.07;29.13;;;;;;;11.88;97.71;97967.28;5009780;28;20207;-74
2024/02/11 10:51:42;;;;;;;39.30;28.03;;;;;;;11.86;98.38;97963.94;5013071;28;20210;-75
2024/02/11 10:54:12;;;;;;;39.60;27.07;;;;;;;11.88;98.62;97956.81;5013624;28;20211;-75
2024/02/11 10:56:39;;;;;;;41.00;27.50;;;;;;;11.96;98.38;97956.38;5009501;28;20281;-75
2024/02/11 10:59:10;;;;;;;42.77;26.67;;;;;;;12.02;97.87;97961.19;5015820;28;20261;-75
2024/02/11 11:01:37;;;;;;;42.40;28.77;;;;;;;12.08;97.48;97975.66;5010161;28;20233;-75
2024/02/11 11:04:06;;;;;;;44.13;28.27;;;;;;;12.09;97.47;97978.19;5009447;28;20209;-75
2024/02/11 11:06:35;;;;;;;42.83;28.73;;;;;;;12.10;97.23;97982.44;5017605;28;20219;-74
2024/02/11 11:09:05;;;;;;;38.43;26.90;;;;;;;12.12;96.76;97988.41;5015397;28;20673;-75
2024/02/11 11:11:31;;;;;;;40.67;29.30;;;;;;;12.10;96.95;97986.84;5010809;28;20214;-75
2024/02/11 11:14:00;;;;;;;41.97;28.30;;;;;;;12.11;97.10;97992.00;5009133;28;20242;-75
2024/02/11 11:16:30;;;;;;;40.60;27.17;;;;;;;12.11;97.04;97997.22;5009661;28;20211;-74
2024/02/11 11:19:03;;;;;;;42.92;32.90;;;;;;;12.17;97.10;97996.00;5008307;28;20454;-75